Tulsa International Airport
KTUL : now visible

Airfield :











YOU CAN JOIN US ON...

 
LOGIN :

Register | Disclaimer

   EN    FR    IT 

 









Legend :    VFR   Marginal VFR   IFR   Intensive IFR   Very Intensive IFR
Visi :
Ceiling :
>= 8 km
>= 3000ft
5 to 8 km
1000 to 3000 ft
1500m to 5 km
500 to 1000 ft
800 to 1500m
200 to 500 ft
< 800m
< 200 ft
Symbols :   Thunderstorms  Fog  Heavy snow  Heavy precipitations  Wind > 20 kt







- Airport Elevation : 677 ft
- IATA code : TUL


KTUL - Tulsa International

CURRENT METAR :
  • 201253Z 07008KT 10SM SCT060 BKN250 17/12 A2994 RMK AO2 SLP133 T01670117

EXPIRED METARs :
  • 201153Z 08007KT 10SM FEW050 OVC250 16/12 A2994 RMK AO2 SLP134 T01560117 10172 20139 58008 $
  • 201053Z 06009KT 10SM BKN250 16/11 A2995 RMK AO2 SLP136 T01560111 $

TAF KTUL
Valid from the 20 at 12:00 until the 21 at 12:00 UTC


201120Z 2012/2112 04006KT P6SM BKN250
FM201400 09012KT P6SM VCTS OVC050CB
TEMPO 2017/2021 VRB15G30KT 2SM +TSRA OVC025CB
FM202100 14013G20KT 5SM -TSRA OVC025CB
TEMPO 2021/2101 VRB15G40KT 2SM +TSRA OVC015CB
FM210100 14011G20KT 5SM -TSRA BR BKN025CB
TEMPO 2101/2105 VRB15G30KT 2SM +TSRA BKN015CB
FM210500 16010KT P6SM VCTS BKN025CB
PROB30 2106/2112 3SM TSRA BKN015CB
KZKC FIR / North America



MET'MAP, your aeronautical weather chart ! - Copyright ORBIFLY December 2007 - Disclaimer

ORBIFLY MET'MAP TEAM :

Programming & Development : Alexandra Zaïnal
Concept & Development : Baudouin d'Aumeries
Co-Development & Prog : Marc-Olivier Méhu
Technical & hardware support : Manuel Goepfert

Contact : metmap@orbifly.com




SOURCES & CREDITS :

   NOAA       Earth
Advisory